createdAt,value
2023-04-09T00:03:50.089Z,87.70
2023-04-09T00:09:00.251Z,88.50
2023-04-09T00:13:59.302Z,89.30
2023-04-09T00:19:09.293Z,89.00
2023-04-09T00:24:09.094Z,88.20
2023-04-09T00:29:18.106Z,88.50
2023-04-09T00:34:27.405Z,89.10
2023-04-09T00:39:37.670Z,89.80
2023-04-09T00:44:36.079Z,89.40
2023-04-09T00:49:37.899Z,89.30
2023-04-09T00:54:46.411Z,89.50
2023-04-09T00:59:58.704Z,90.40
2023-04-09T01:04:56.878Z,90.60
2023-04-09T01:10:06.496Z,90.90
2023-04-09T01:15:15.388Z,90.90
2023-04-09T01:20:25.211Z,90.80
2023-04-09T01:25:26.449Z,90.80
2023-04-09T01:30:35.531Z,90.90
2023-04-09T01:35:45.353Z,90.90
2023-04-09T01:40:55.318Z,91.00
2023-04-09T01:46:05.011Z,91.10
2023-04-09T01:51:13.917Z,91.30
2023-04-09T01:56:22.132Z,91.40
2023-04-09T02:01:31.136Z,91.80
2023-04-09T02:06:40.206Z,91.70
2023-04-09T02:11:49.399Z,91.60
2023-04-09T02:16:59.173Z,91.60
2023-04-09T02:22:07.777Z,91.40
2023-04-09T02:27:17.520Z,91.30
2023-04-09T02:32:27.589Z,91.20
2023-04-09T02:37:29.061Z,91.00
2023-04-09T02:42:28.812Z,90.90
2023-04-09T02:47:31.226Z,90.90
2023-04-09T02:52:40.948Z,90.80
2023-04-09T02:57:49.523Z,90.80
2023-04-09T03:02:58.813Z,91.10
2023-04-09T03:08:08.146Z,91.30
2023-04-09T03:13:18.077Z,91.30
2023-04-09T03:18:26.221Z,91.20
2023-04-09T03:23:35.934Z,91.10
2023-04-09T03:28:46.126Z,90.90
2023-04-09T03:33:45.947Z,90.80
2023-04-09T03:38:55.613Z,90.60
2023-04-09T03:44:05.491Z,90.50
2023-04-09T03:49:14.733Z,90.50
2023-04-09T03:54:23.691Z,90.50
2023-04-09T03:59:34.405Z,90.20
2023-04-09T04:04:34.026Z,90.10
2023-04-09T04:09:42.502Z,90.10
2023-04-09T04:14:51.397Z,90.30
2023-04-09T04:20:01.557Z,90.30
2023-04-09T04:25:00.979Z,90.40
2023-04-09T04:30:10.573Z,90.30
2023-04-09T04:35:20.427Z,90.00
2023-04-09T04:40:28.675Z,89.80
2023-04-09T04:45:38.240Z,88.90
2023-04-09T04:50:47.379Z,89.00
2023-04-09T04:55:57.573Z,88.90
2023-04-09T05:00:56.036Z,89.00
2023-04-09T05:06:08.474Z,88.90
2023-04-09T05:11:10.440Z,88.90
2023-04-09T05:16:10.633Z,88.30
2023-04-09T05:21:10.180Z,87.00
2023-04-09T05:26:19.351Z,87.10
2023-04-09T05:31:27.765Z,85.60
2023-04-09T05:36:37.994Z,86.70
2023-04-09T05:41:36.390Z,87.40
2023-04-09T05:46:46.268Z,86.90
2023-04-09T05:51:56.333Z,84.80
2023-04-09T05:56:54.866Z,84.00
2023-04-09T06:02:03.467Z,85.80
2023-04-09T06:07:13.382Z,85.20
2023-04-09T06:12:23.244Z,85.70
2023-04-09T06:17:33.709Z,83.60
2023-04-09T06:22:32.247Z,82.60
2023-04-09T06:27:42.552Z,82.20
2023-04-09T06:32:53.147Z,81.90
2023-04-09T06:37:50.370Z,84.10
2023-04-09T06:42:59.017Z,83.40
2023-04-09T06:48:09.737Z,84.00
2023-04-09T06:53:08.374Z,83.40
2023-04-09T06:58:18.807Z,82.20
2023-04-09T07:03:18.461Z,77.30
2023-04-09T07:08:28.358Z,75.80
2023-04-09T07:18:37.655Z,78.10
2023-04-09T07:23:37.728Z,76.30
2023-04-09T07:28:37.014Z,73.60
2023-04-09T07:33:45.571Z,73.80
2023-04-09T07:38:54.643Z,71.50
2023-04-09T07:44:03.433Z,72.50
2023-04-09T07:49:13.641Z,74.70
2023-04-09T07:54:13.762Z,71.10
2023-04-09T07:59:14.208Z,68.50
2023-04-09T08:04:14.352Z,68.70
2023-04-09T08:09:15.331Z,67.70
2023-04-09T08:14:14.466Z,67.30
2023-04-09T08:19:24.576Z,66.30
2023-04-09T08:24:23.266Z,62.90
2023-04-09T08:29:33.497Z,64.40
2023-04-09T08:34:33.260Z,64.20
2023-04-09T08:39:42.716Z,63.10
2023-04-09T08:44:51.194Z,61.10
2023-04-09T08:54:59.928Z,56.60
2023-04-09T09:00:09.290Z,58.30
2023-04-09T09:05:18.626Z,56.10
2023-04-09T09:10:27.555Z,57.80
2023-04-09T09:15:36.346Z,56.90
2023-04-09T09:20:46.820Z,54.10
2023-04-09T09:41:15.592Z,55.80
2023-04-09T09:46:14.164Z,53.40
2023-04-09T09:51:22.923Z,55.70
2023-04-09T10:06:44.466Z,56.80
2023-04-09T10:11:53.168Z,53.60
2023-04-09T10:17:02.412Z,54.40
2023-04-09T10:22:12.774Z,52.90
2023-04-09T10:27:12.551Z,52.60
2023-04-09T10:32:20.953Z,53.30
2023-04-09T10:37:29.712Z,53.60
2023-04-09T10:42:39.740Z,54.60
2023-04-09T10:47:40.246Z,54.50
2023-04-09T10:52:40.722Z,51.20
2023-04-09T10:57:40.395Z,55.20
2023-04-09T11:02:49.119Z,53.20
2023-04-09T11:07:59.139Z,50.50
2023-04-09T11:12:57.975Z,49.40
2023-04-09T11:18:07.809Z,50.30
2023-04-09T11:23:16.912Z,52.40
2023-04-09T11:28:26.785Z,53.40
2023-04-09T11:33:35.791Z,52.40
2023-04-09T11:38:45.097Z,50.60
2023-04-09T11:43:53.677Z,52.40
2023-04-09T11:49:03.372Z,50.20
2023-04-09T11:54:13.409Z,49.10
2023-04-09T11:59:13.297Z,50.50
2023-04-09T12:04:22.591Z,47.90
2023-04-09T12:09:32.640Z,50.20
2023-04-09T12:14:32.474Z,47.80
2023-04-09T12:19:40.947Z,48.20
2023-04-09T12:24:49.569Z,46.00
2023-04-09T12:29:58.626Z,49.50
2023-04-09T12:35:10.038Z,50.60
2023-04-09T12:40:08.453Z,50.50
2023-04-09T12:45:18.176Z,50.50
2023-04-09T12:50:26.607Z,54.00
2023-04-09T12:55:37.128Z,52.50
2023-04-09T13:00:36.952Z,52.30
2023-04-09T13:05:47.280Z,54.30
2023-04-09T13:10:45.909Z,54.40
2023-04-09T13:15:54.834Z,52.10
2023-04-09T13:21:07.288Z,52.90
2023-04-09T13:26:06.771Z,54.40
2023-04-09T13:31:22.199Z,52.40
2023-04-09T13:36:21.550Z,52.70
2023-04-09T13:41:31.927Z,52.20
2023-04-09T13:46:41.151Z,50.40
2023-04-09T13:51:39.303Z,51.80
2023-04-09T13:56:49.501Z,50.10
2023-04-09T14:01:48.997Z,52.00
2023-04-09T14:06:58.723Z,52.50
2023-04-09T14:12:09.545Z,52.10
2023-04-09T14:17:09.789Z,52.60
2023-04-09T14:37:36.730Z,54.50
2023-04-09T14:42:36.762Z,55.00
2023-04-09T14:57:37.559Z,54.60
2023-04-09T15:28:07.037Z,54.60
2023-04-09T15:33:17.169Z,55.00
2023-04-09T15:38:16.013Z,55.80
2023-04-09T15:53:43.855Z,56.00
2023-04-09T15:58:54.724Z,57.40
2023-04-09T16:03:53.568Z,57.00
2023-04-09T16:09:04.393Z,56.20
2023-04-09T16:19:14.045Z,57.40
2023-04-09T16:24:24.050Z,57.00
2023-04-09T16:29:23.200Z,59.50
2023-04-09T16:34:31.580Z,62.30
2023-04-09T16:39:40.445Z,63.00
2023-04-09T16:44:49.748Z,63.20
2023-04-09T16:49:58.658Z,63.50
2023-04-09T16:55:07.208Z,65.80
2023-04-09T17:00:09.243Z,67.00
2023-04-09T17:05:11.232Z,70.30
2023-04-09T17:10:23.519Z,70.80
2023-04-09T17:15:23.341Z,72.40
2023-04-09T17:20:32.710Z,73.40
2023-04-09T17:25:43.255Z,73.30
2023-04-09T17:30:38.551Z,74.30
2023-04-09T17:35:50.139Z,75.10
2023-04-09T17:40:51.165Z,75.40
2023-04-09T17:45:52.942Z,74.70
2023-04-09T17:50:53.798Z,75.90
2023-04-09T17:55:56.172Z,76.40
2023-04-09T18:00:53.224Z,76.50
2023-04-09T18:06:02.834Z,76.10
2023-04-09T18:11:13.475Z,77.20
2023-04-09T18:16:20.868Z,77.40
2023-04-09T18:21:30.280Z,78.10
2023-04-09T18:26:39.005Z,78.20
2023-04-09T18:31:48.338Z,77.80
2023-04-09T18:36:57.927Z,78.60
2023-04-09T18:42:06.748Z,78.60
2023-04-09T18:47:16.000Z,79.80
2023-04-09T18:52:25.689Z,78.80
2023-04-09T18:57:34.345Z,78.80
2023-04-09T19:02:44.240Z,79.30
2023-04-09T19:07:52.788Z,79.70
2023-04-09T19:13:01.739Z,80.30
2023-04-09T19:18:10.442Z,80.50
2023-04-09T19:23:19.432Z,79.90
2023-04-09T19:28:28.181Z,80.30
2023-04-09T19:33:37.223Z,81.20
2023-04-09T19:38:45.454Z,81.20
2023-04-09T19:43:54.785Z,81.30
2023-04-09T19:49:03.698Z,82.40
2023-04-09T19:54:13.142Z,81.70
2023-04-09T19:59:21.851Z,81.60
2023-04-09T20:04:31.098Z,82.50
2023-04-09T20:09:39.589Z,83.20
2023-04-09T20:14:48.750Z,83.70
2023-04-09T20:19:57.298Z,83.20
2023-04-09T20:25:06.211Z,82.70
2023-04-09T20:30:14.715Z,82.30
2023-04-09T20:35:23.597Z,83.00
2023-04-09T20:40:32.763Z,82.70
2023-04-09T20:45:41.955Z,83.90
2023-04-09T20:50:50.471Z,84.90
2023-04-09T20:55:59.774Z,85.10
2023-04-09T21:01:09.179Z,85.60
2023-04-09T21:06:18.480Z,85.20
2023-04-09T21:11:27.364Z,85.10
2023-04-09T21:16:36.315Z,84.60
2023-04-09T21:21:44.835Z,84.50
2023-04-09T21:26:53.957Z,84.40
2023-04-09T21:32:08.852Z,84.20
2023-04-09T21:37:07.522Z,83.90
2023-04-09T21:42:15.941Z,83.40
2023-04-09T21:47:25.020Z,84.20
2023-04-09T21:52:33.561Z,84.60
2023-04-09T21:57:42.479Z,85.10
2023-04-09T22:02:52.148Z,86.10
2023-04-09T22:08:01.376Z,86.20
2023-04-09T22:13:10.068Z,85.60
2023-04-09T22:18:19.062Z,86.50
2023-04-09T22:23:27.526Z,87.50
2023-04-09T22:28:36.440Z,87.30
2023-04-09T22:33:44.870Z,87.30
2023-04-09T22:38:54.016Z,88.60
2023-04-09T22:44:02.464Z,88.60
2023-04-09T22:49:11.903Z,89.00
2023-04-09T22:54:20.215Z,89.50
2023-04-09T23:04:37.372Z,89.60
2023-04-09T23:09:49.045Z,90.10
2023-04-09T23:14:49.553Z,89.70
2023-04-09T23:19:57.018Z,89.90
2023-04-09T23:25:05.497Z,89.80
2023-04-09T23:30:14.491Z,90.00
2023-04-09T23:35:23.631Z,90.10
2023-04-09T23:40:32.193Z,90.00
2023-04-09T23:45:41.108Z,90.30
2023-04-09T23:50:50.321Z,90.10
2023-04-09T23:55:58.939Z,89.70
